CheckWX is a tool to help pilots better visualize weather data.  It is not intended as a substitute for an official pre-flight weather briefing.

14:02:52 UTC

CYVM METAR
Qikiqtarjuaq Airport
Qikiqtarjuaq, Canada
Current

1 hour ago

CYVM 211300Z 02009KT 6SM -DZRA BR FEW005 BKN013 OVC020 04/04 A2925 RMK ST2ST4SC2 SLP908
Observed
Sep-21 @ 13:00 UTC
Wind
  • 020° at 9 KTS
Visibility
6 SM
Flight Rules
MVFR
Conditions
Light Drizzle, Light Rain, Mist
Cloud Levels
  • Few at 500' AGL
  • Broken at 1,300' AGL
  • Overcast at 2,000' AGL
Temperature
C / 39°F
Dewpoint
C / 39°F
Humidity
100%
Altimeter
29.25" Hg
Pressure
990.52 hPa
Previous

1 hour ago

CYVM 211242Z 03005KT 6SM -DZRA BR FEW005 BKN015 OVC032 04/04 A2924 RMK ST2ST4SC2 SLP905
Observed
Sep-21 @ 12:42 UTC
Wind
  • 030° at 5 KTS
Visibility
6 SM
Flight Rules
MVFR
Conditions
Light Drizzle, Light Rain, Mist
Cloud Levels
  • Few at 500' AGL
  • Broken at 1,500' AGL
  • Overcast at 3,200' AGL
Temperature
C / 39°F
Dewpoint
C / 39°F
Humidity
100%
Altimeter
29.24" Hg
Pressure
990.22 hPa
Previous

2 hours ago

CYVM 211200Z 06003KT 15SM -RA BKN013 OVC032 04/04 A2923 RMK ST6SC2 S 00 AFT 21UTC SLP899
Observed
Sep-21 @ 12:00 UTC
Wind
  • 060° at 3 KTS
Visibility
15 SM
Flight Rules
MVFR
Conditions
Light Rain
Cloud Levels
  • Broken at 1,300' AGL
  • Overcast at 3,200' AGL
Temperature
C / 39°F
Dewpoint
C / 39°F
Humidity
100%
Altimeter
29.23" Hg
Pressure
989.82 hPa